Time;durP1;ratioP1;P1;durP2;ratioP2;P2;SDS_P1;SDS_P2;PMS_P1;PMS_P2;Temp;Humidity;BMP_temperature;BMP_pressure;BME280_temperature;BME280_humidity;BME280_pressure;Samples;Min_cycle;Max_cycle;Signal;HPM_P1;HPM_P2
2021/05/10 00:01:18;;;;;;;2.88;1.95;;;;;;;15.78;nan;100788.69;5038404;28;20040;-47
2021/05/10 00:03:43;;;;;;;3.40;2.30;;;;;;;15.70;nan;100787.41;5044851;28;20028;-48
2021/05/10 00:06:09;;;;;;;3.20;2.22;;;;;;;15.73;nan;100790.63;5025594;28;20036;-50
2021/05/10 00:08:34;;;;;;;5.25;2.22;;;;;;;15.71;nan;100782.81;5043811;28;20028;-50
2021/05/10 00:11:00;;;;;;;4.13;2.15;;;;;;;15.66;nan;100793.66;5041999;28;20100;-50
2021/05/10 00:13:27;;;;;;;4.38;2.50;;;;;;;15.53;nan;100789.66;5045849;28;20059;-51
2021/05/10 00:15:53;;;;;;;3.70;2.10;;;;;;;15.55;nan;100787.47;5042390;28;20163;-52
2021/05/10 00:18:19;;;;;;;2.72;2.40;;;;;;;15.53;nan;100791.56;5022939;28;20017;-51
2021/05/10 00:20:47;;;;;;;3.13;2.08;;;;;;;15.51;nan;100791.03;5043107;28;20025;-52
2021/05/10 00:23:14;;;;;;;5.28;2.75;;;;;;;15.48;nan;100789.69;5040819;28;20075;-50
2021/05/10 00:25:40;;;;;;;3.70;2.40;;;;;;;15.35;nan;100785.72;5042262;28;20086;-51
2021/05/10 00:28:06;;;;;;;2.67;2.20;;;;;;;15.41;nan;100795.38;5040970;28;20032;-49
2021/05/10 00:30:33;;;;;;;4.13;2.60;;;;;;;15.41;nan;100784.59;5043206;28;20036;-49
2021/05/10 00:32:59;;;;;;;3.58;2.35;;;;;;;15.37;nan;100790.84;5041986;28;20043;-49
2021/05/10 00:35:25;;;;;;;3.10;2.47;;;;;;;15.33;nan;100785.19;5039612;28;20034;-49
2021/05/10 00:37:52;;;;;;;4.03;2.22;;;;;;;15.31;nan;100790.06;5043361;28;20025;-48
2021/05/10 00:40:21;;;;;;;4.38;2.33;;;;;;;15.35;nan;100782.22;5040127;28;20491;-50
2021/05/10 00:42:47;;;;;;;4.45;2.67;;;;;;;15.24;nan;100776.03;5041881;28;20021;-51
2021/05/10 00:45:13;;;;;;;4.32;2.50;;;;;;;15.20;nan;100783.09;5042416;28;21102;-49
2021/05/10 00:47:39;;;;;;;2.65;2.25;;;;;;;15.13;nan;100787.19;5040765;28;20029;-51
2021/05/10 00:50:07;;;;;;;2.72;2.38;;;;;;;15.04;nan;100795.03;5040454;28;20032;-51
2021/05/10 00:52:33;;;;;;;2.83;2.30;;;;;;;14.95;nan;100799.41;5040647;28;20100;-51
2021/05/10 00:54:59;;;;;;;3.58;2.60;;;;;;;14.96;nan;100792.91;5036781;28;20048;-50
2021/05/10 00:57:29;;;;;;;3.78;2.40;;;;;;;14.84;nan;100797.81;5040412;28;20475;-48
2021/05/10 00:59:55;;;;;;;4.32;2.33;;;;;;;14.96;nan;100792.91;5038254;28;20096;-48
2021/05/10 01:02:21;;;;;;;4.20;2.55;;;;;;;14.95;nan;100796.72;5042866;28;20043;-51
2021/05/10 01:04:46;;;;;;;3.42;2.58;;;;;;;14.85;nan;100796.72;5040897;28;20020;-50
2021/05/10 01:07:13;;;;;;;3.40;1.95;;;;;;;14.74;nan;100796.78;5040780;28;20029;-52
2021/05/10 01:09:38;;;;;;;3.33;2.28;;;;;;;14.75;nan;100793.00;5044194;28;20071;-50
2021/05/10 01:12:05;;;;;;;3.97;2.28;;;;;;;14.77;nan;100792.72;5040517;28;20052;-52
2021/05/10 01:14:30;;;;;;;3.92;2.60;;;;;;;14.79;nan;100793.25;5042766;28;20035;-49
2021/05/10 01:16:56;;;;;;;5.25;2.50;;;;;;;14.84;nan;100793.22;5038194;28;20033;-50
2021/05/10 01:19:23;;;;;;;4.30;2.25;;;;;;;14.69;nan;100794.06;5041902;28;20455;-51
2021/05/10 01:21:50;;;;;;;3.92;2.60;;;;;;;14.64;nan;100794.09;5042091;28;20021;-49
2021/05/10 01:24:16;;;;;;;2.92;2.38;;;;;;;14.68;nan;100802.44;5040776;28;20029;-49
2021/05/10 01:26:42;;;;;;;4.22;2.25;;;;;;;14.64;nan;100796.78;5040105;28;20027;-49
2021/05/10 01:29:07;;;;;;;3.00;2.35;;;;;;;14.62;nan;100792.75;5041692;28;20176;-50
2021/05/10 01:31:33;;;;;;;5.28;2.50;;;;;;;14.57;nan;100788.19;5039968;28;20021;-49
2021/05/10 01:33:59;;;;;;;4.22;2.40;;;;;;;14.50;nan;100793.84;5041177;28;20514;-52
2021/05/10 01:36:24;;;;;;;3.53;2.58;;;;;;;14.40;nan;100787.66;5041439;28;20475;-51
2021/05/10 01:38:50;;;;;;;2.83;2.38;;;;;;;14.43;nan;100787.09;5040098;28;20463;-49
2021/05/10 01:41:15;;;;;;;5.95;2.75;;;;;;;14.43;nan;100785.25;5042345;28;20025;-50
2021/05/10 01:43:41;;;;;;;3.33;2.60;;;;;;;14.41;nan;100781.19;5025143;28;20032;-48
2021/05/10 01:46:06;;;;;;;3.58;2.40;;;;;;;14.35;nan;100790.34;5037105;28;20108;-50
2021/05/10 01:48:32;;;;;;;4.72;2.50;;;;;;;14.25;nan;100784.97;5041260;28;20032;-48
2021/05/10 01:50:57;;;;;;;6.10;2.40;;;;;;;14.25;nan;100784.97;5038664;28;20024;-50
2021/05/10 01:53:23;;;;;;;2.97;2.45;;;;;;;14.24;nan;100791.44;5041586;28;20861;-48
2021/05/10 01:55:49;;;;;;;4.38;2.50;;;;;;;14.26;nan;100784.72;5039956;28;20032;-51
2021/05/10 01:58:14;;;;;;;3.80;2.63;;;;;;;14.25;nan;100787.66;5040556;28;20048;-52
2021/05/10 02:00:42;;;;;;;2.83;2.20;;;;;;;14.30;nan;100795.75;5042403;28;20387;-48
2021/05/10 02:03:16;;;;;;;4.13;2.60;;;;;;;14.32;nan;100790.88;5040517;28;20029;-48
2021/05/10 02:05:43;;;;;;;2.83;2.27;;;;;;;14.31;nan;100792.78;5039902;28;20389;-51
2021/05/10 02:08:10;;;;;;;5.88;2.38;;;;;;;14.33;nan;100784.41;5041769;28;20505;-50
2021/05/10 02:10:41;;;;;;;2.88;2.40;;;;;;;14.27;nan;100789.00;5042942;28;20103;-49
2021/05/10 02:13:11;;;;;;;8.73;2.20;;;;;;;14.31;nan;100787.38;5040587;28;20025;-51
2021/05/10 02:15:39;;;;;;;6.07;2.72;;;;;;;14.29;nan;100791.44;5045310;28;20382;-51
2021/05/10 02:18:06;;;;;;;4.93;2.38;;;;;;;14.28;nan;100796.03;5042660;28;20024;-49
2021/05/10 02:20:33;;;;;;;3.08;2.20;;;;;;;14.19;nan;100795.78;5026873;28;20116;-51
2021/05/10 02:23:01;;;;;;;6.93;2.33;;;;;;;14.25;nan;100801.16;5045882;28;20116;-51
2021/05/10 02:25:30;;;;;;;4.72;2.65;;;;;;;14.02;nan;100797.94;5045750;28;20016;-51
2021/05/10 02:27:56;;;;;;;3.10;2.35;;;;;;;14.08;nan;100796.84;5045998;28;20037;-51
2021/05/10 02:30:24;;;;;;;4.88;2.10;;;;;;;14.18;nan;100794.16;5044121;28;20025;-51
2021/05/10 02:32:51;;;;;;;4.50;2.05;;;;;;;14.18;nan;100798.72;5043433;28;20021;-50
2021/05/10 02:35:18;;;;;;;2.75;2.20;;;;;;;14.16;nan;100787.41;5045045;28;20111;-51
2021/05/10 02:37:44;;;;;;;5.18;2.22;;;;;;;14.12;nan;100789.84;5041170;28;20040;-51
2021/05/10 02:40:10;;;;;;;4.40;2.42;;;;;;;14.13;nan;100783.34;5046026;28;20025;-51
2021/05/10 02:42:36;;;;;;;4.57;2.28;;;;;;;14.04;nan;100782.31;5042583;28;20060;-51
2021/05/10 02:45:03;;;;;;;4.68;2.10;;;;;;;14.05;nan;100783.91;5044215;28;20159;-51
2021/05/10 02:47:29;;;;;;;6.63;2.30;;;;;;;14.07;nan;100781.75;5043907;28;20029;-51
2021/05/10 02:49:55;;;;;;;3.08;2.10;;;;;;;14.04;nan;100792.28;5044552;28;20479;-48
2021/05/10 02:52:21;;;;;;;3.42;1.98;;;;;;;14.08;nan;100786.06;5043806;28;20072;-51
2021/05/10 02:54:47;;;;;;;2.45;1.92;;;;;;;14.11;nan;100788.22;5044190;28;20024;-51
2021/05/10 02:57:13;;;;;;;3.38;2.13;;;;;;;14.09;nan;100792.25;5044563;28;20032;-51
2021/05/10 02:59:38;;;;;;;3.75;1.92;;;;;;;14.12;nan;100791.72;5044730;28;20025;-51
2021/05/10 03:02:04;;;;;;;4.80;2.30;;;;;;;14.08;nan;100787.94;5042300;28;20033;-51
2021/05/10 03:04:30;;;;;;;2.78;2.00;;;;;;;14.09;nan;100798.47;5041490;28;20090;-48
2021/05/10 03:06:56;;;;;;;2.85;1.92;;;;;;;14.05;nan;100799.28;5044259;28;20040;-51
2021/05/10 03:09:21;;;;;;;2.60;2.25;;;;;;;14.03;nan;100798.75;5043272;28;20034;-50
2021/05/10 03:11:47;;;;;;;2.78;2.08;;;;;;;13.96;nan;100790.91;5040375;28;20264;-51
2021/05/10 03:14:12;;;;;;;4.07;1.92;;;;;;;13.90;nan;100786.59;5043460;28;20036;-48
2021/05/10 03:16:38;;;;;;;5.75;2.85;;;;;;;13.84;nan;100785.81;5045824;28;20028;-51
2021/05/10 03:19:08;;;;;;;4.80;2.30;;;;;;;13.84;nan;100795.78;5021746;28;20029;-51
2021/05/10 03:21:35;;;;;;;4.43;1.88;;;;;;;13.79;nan;100798.44;5044170;28;20378;-51
2021/05/10 03:24:01;;;;;;;2.63;1.88;;;;;;;13.82;nan;100805.97;5043900;28;20024;-51
2021/05/10 03:26:27;;;;;;;2.63;2.13;;;;;;;13.79;nan;100801.13;5043596;28;20426;-51
2021/05/10 03:28:53;;;;;;;4.10;2.40;;;;;;;13.92;nan;100808.69;5044721;28;20032;-50
2021/05/10 03:31:18;;;;;;;4.80;2.15;;;;;;;13.98;nan;100799.53;5042797;28;20083;-50
2021/05/10 03:33:44;;;;;;;2.83;2.38;;;;;;;14.01;nan;100799.00;5042134;28;20020;-48
2021/05/10 03:36:10;;;;;;;3.13;2.10;;;;;;;13.98;nan;100796.81;5042590;28;20029;-48
2021/05/10 03:38:36;;;;;;;5.22;2.20;;;;;;;14.03;nan;100798.75;5039350;28;20270;-51
2021/05/10 03:41:02;;;;;;;2.65;1.83;;;;;;;13.97;nan;100803.28;5040527;28;20051;-51
2021/05/10 03:43:27;;;;;;;2.92;1.88;;;;;;;13.96;nan;100811.66;5043809;28;20261;-51
2021/05/10 03:45:52;;;;;;;4.85;2.15;;;;;;;14.05;nan;100805.47;5040638;28;20026;-52
2021/05/10 03:48:18;;;;;;;3.63;2.10;;;;;;;14.05;nan;100801.97;5040350;28;20052;-48
2021/05/10 03:50:43;;;;;;;5.05;2.25;;;;;;;14.04;nan;100795.78;5037000;28;20025;-51
2021/05/10 03:53:09;;;;;;;3.05;2.00;;;;;;;14.09;nan;100798.47;5038951;28;20382;-48
2021/05/10 03:55:36;;;;;;;3.92;1.98;;;;;;;14.12;nan;100800.59;5038852;28;20025;-49
2021/05/10 03:58:01;;;;;;;5.90;2.05;;;;;;;14.14;nan;100798.44;5044013;28;20031;-51
2021/05/10 04:00:27;;;;;;;3.10;1.90;;;;;;;14.23;nan;100800.63;5039625;28;20032;-51
2021/05/10 04:02:52;;;;;;;5.68;2.33;;;;;;;14.34;nan;100808.41;5043468;28;20475;-49
2021/05/10 04:15:49;;;;;;;4.18;2.67;;;;;;;14.80;nan;100803.75;5034402;28;20117;-50
2021/05/10 04:18:15;;;;;;;4.90;2.53;;;;;;;14.87;nan;100799.97;5038748;28;20473;-50
2021/05/10 04:20:41;;;;;;;4.95;3.10;;;;;;;14.91;nan;100796.47;5041003;28;20021;-49
2021/05/10 04:23:06;;;;;;;4.28;2.50;;;;;;;14.93;nan;100798.88;5040990;28;20040;-51
2021/05/10 04:25:32;;;;;;;3.47;2.45;;;;;;;14.99;nan;100803.97;5037648;28;20025;-51
2021/05/10 04:27:58;;;;;;;3.50;2.60;;;;;;;15.08;nan;100806.88;5039260;28;20087;-50
2021/05/10 04:30:24;;;;;;;5.35;2.42;;;;;;;15.16;nan;100808.22;5037469;28;20281;-49
2021/05/10 04:32:49;;;;;;;6.03;2.65;;;;;;;15.26;nan;100805.47;5038897;28;20017;-48
2021/05/10 04:35:15;;;;;;;5.65;2.75;;;;;;;15.34;nan;100808.41;5034673;28;20054;-51
2021/05/10 04:37:41;;;;;;;10.00;3.00;;;;;;;15.43;nan;100798.63;5035052;28;20029;-50
2021/05/10 04:40:07;;;;;;;4.15;2.92;;;;;;;15.46;nan;100804.56;5035639;28;20565;-48
2021/05/10 04:42:33;;;;;;;5.43;2.95;;;;;;;15.53;nan;100799.66;5035502;28;20506;-48
2021/05/10 04:44:58;;;;;;;6.50;3.58;;;;;;;15.51;nan;100801.81;5036018;28;20033;-50
2021/05/10 04:47:24;;;;;;;4.55;3.10;;;;;;;15.57;nan;100806.91;5034085;28;20032;-49
2021/05/10 04:49:49;;;;;;;5.22;2.97;;;;;;;15.62;nan;100806.13;5037136;28;20193;-51
2021/05/10 04:52:15;;;;;;;7.35;2.70;;;;;;;15.69;nan;100804.72;5038643;28;20021;-48
2021/05/10 04:54:40;;;;;;;3.95;3.05;;;;;;;15.71;nan;100807.94;5035253;28;20550;-51
2021/05/10 04:57:06;;;;;;;4.90;2.70;;;;;;;15.87;nan;100813.22;5039595;28;21648;-48
2021/05/10 04:59:32;;;;;;;7.28;3.20;;;;;;;15.93;nan;100812.09;5039573;28;21725;-50
2021/05/10 05:01:57;;;;;;;3.90;2.63;;;;;;;16.09;nan;100810.09;5034692;28;20294;-50
2021/05/10 05:04:23;;;;;;;3.45;2.47;;;;;;;16.20;nan;100808.91;5035491;28;20070;-49
2021/05/10 05:06:48;;;;;;;5.03;2.90;;;;;;;16.34;nan;100809.88;5034105;28;20032;-51
2021/05/10 05:09:14;;;;;;;3.42;2.72;;;;;;;16.48;nan;100810.00;5037679;28;20025;-50
2021/05/10 05:11:40;;;;;;;5.25;2.60;;;;;;;16.52;nan;100809.16;5039122;28;20058;-49
2021/05/10 05:14:05;;;;;;;3.67;2.50;;;;;;;16.72;nan;100804.66;5038502;28;20028;-48
2021/05/10 05:16:31;;;;;;;6.38;3.10;;;;;;;16.85;nan;100795.81;5041922;28;20029;-50
2021/05/10 05:18:57;;;;;;;5.93;2.55;;;;;;;16.90;nan;100793.88;5038524;28;20072;-50
2021/05/10 05:21:22;;;;;;;7.95;2.95;;;;;;;16.92;nan;100790.88;5041240;28;20593;-52
2021/05/10 05:23:48;;;;;;;6.45;3.03;;;;;;;17.00;nan;100798.34;5041428;28;20216;-48
2021/05/10 05:26:14;;;;;;;4.38;2.65;;;;;;;17.06;nan;100799.94;5041120;28;20060;-49
2021/05/10 05:28:41;;;;;;;5.20;2.60;;;;;;;17.18;nan;100799.47;5043698;28;20029;-49
2021/05/10 05:31:07;;;;;;;9.43;2.60;;;;;;;17.27;nan;100805.88;5038003;28;20044;-48
2021/05/10 05:33:32;;;;;;;5.13;2.40;;;;;;;17.37;nan;100807.63;5044138;28;20025;-49
2021/05/10 05:35:58;;;;;;;4.70;2.17;;;;;;;17.40;nan;100804.34;5040037;28;20041;-49
2021/05/10 05:38:24;;;;;;;5.60;2.30;;;;;;;17.57;nan;100806.53;5041779;28;20428;-50
2021/05/10 05:40:49;;;;;;;5.70;2.45;;;;;;;17.72;nan;100815.28;5042641;28;20025;-51
2021/05/10 05:43:15;;;;;;;4.05;1.80;;;;;;;17.67;nan;100820.75;5041371;28;20412;-49
2021/05/10 05:45:42;;;;;;;3.58;2.15;;;;;;;17.65;nan;100822.94;5041165;28;20119;-51
2021/05/10 05:48:10;;;;;;;3.78;2.50;;;;;;;17.71;nan;100823.72;5041106;28;20036;-49
2021/05/10 05:50:36;;;;;;;4.82;2.53;;;;;;;17.97;nan;100816.00;5044765;28;20372;-49
2021/05/10 05:53:03;;;;;;;3.70;2.15;;;;;;;18.20;nan;100814.25;5046615;28;20028;-51
2021/05/10 05:55:29;;;;;;;3.53;2.33;;;;;;;18.20;nan;100817.78;5048010;28;20025;-49
2021/05/10 05:57:57;;;;;;;3.55;2.22;;;;;;;18.35;nan;100809.38;5041559;28;20403;-49
2021/05/10 06:00:23;;;;;;;3.45;2.20;;;;;;;18.54;nan;100814.75;5045078;28;20120;-51
2021/05/10 06:02:49;;;;;;;2.90;2.30;;;;;;;18.69;nan;100813.69;5047909;28;20087;-51
2021/05/10 06:05:15;;;;;;;3.47;2.35;;;;;;;18.76;nan;100822.22;5045510;28;20020;-51
2021/05/10 06:07:44;;;;;;;2.80;2.00;;;;;;;18.83;nan;100817.19;5046361;28;20033;-49
2021/05/10 06:10:12;;;;;;;4.80;2.40;;;;;;;18.63;nan;100823.00;5044577;28;20036;-51
2021/05/10 06:12:39;;;;;;;2.75;1.70;;;;;;;18.57;nan;100813.34;5031302;28;20525;-50
2021/05/10 06:15:08;;;;;;;4.10;1.85;;;;;;;18.53;nan;100831.31;5041816;28;20025;-49
2021/05/10 06:17:35;;;;;;;4.00;1.90;;;;;;;18.70;nan;100823.44;5044871;28;20028;-49
2021/05/10 06:20:07;;;;;;;4.80;2.42;;;;;;;18.83;nan;100819.91;5041947;28;20047;-50
2021/05/10 06:22:32;;;;;;;2.83;2.10;;;;;;;18.96;nan;100810.97;5044608;28;20021;-52
2021/05/10 06:24:59;;;;;;;4.97;2.28;;;;;;;19.18;nan;100814.88;5043183;28;20353;-51
2021/05/10 06:27:25;;;;;;;4.22;2.10;;;;;;;19.22;nan;100813.16;5043150;28;20079;-50
2021/05/10 06:29:50;;;;;;;5.38;1.80;;;;;;;19.33;nan;100809.91;5043955;28;20024;-51
2021/05/10 06:32:16;;;;;;;3.20;2.08;;;;;;;19.60;nan;100809.09;5041716;28;20021;-50
2021/05/10 06:34:41;;;;;;;6.13;2.45;;;;;;;19.63;nan;100798.72;5042613;28;20573;-49
2021/05/10 06:37:06;;;;;;;4.50;1.73;;;;;;;19.71;nan;100792.53;5045250;28;20035;-49
2021/05/10 06:39:32;;;;;;;4.50;2.35;;;;;;;19.94;nan;100791.44;5042857;28;20056;-51
2021/05/10 06:41:57;;;;;;;4.13;2.10;;;;;;;19.96;nan;100785.69;5044976;28;20051;-50
2021/05/10 06:44:23;;;;;;;2.92;1.90;;;;;;;20.08;nan;100780.47;5043423;28;20569;-53
2021/05/10 06:46:48;;;;;;;2.67;2.45;;;;;;;20.12;nan;100776.84;5043661;28;20025;-52
2021/05/10 06:49:14;;;;;;;4.47;1.80;;;;;;;20.30;nan;100768.78;5039550;28;20111;-50
2021/05/10 06:51:40;;;;;;;6.70;2.00;;;;;;;20.50;nan;100773.69;5040555;28;20032;-49
2021/05/10 06:54:05;;;;;;;3.15;1.92;;;;;;;20.14;nan;100779.25;5041003;28;20025;-52
2021/05/10 06:56:31;;;;;;;4.40;1.90;;;;;;;20.32;nan;100780.16;5043232;28;20044;-52
2021/05/10 06:58:56;;;;;;;4.60;1.95;;;;;;;20.49;nan;100786.50;5026443;28;20032;-50
2021/05/10 07:01:22;;;;;;;4.00;1.80;;;;;;;20.48;nan;100790.34;5040321;28;20029;-52
2021/05/10 07:03:47;;;;;;;6.93;2.00;;;;;;;20.53;nan;100789.41;5043677;28;20189;-51
2021/05/10 07:06:13;;;;;;;2.72;1.75;;;;;;;20.53;nan;100789.41;5039487;28;20482;-52
2021/05/10 07:08:39;;;;;;;4.05;1.90;;;;;;;20.83;nan;100786.97;5042966;28;20095;-52
2021/05/10 07:11:05;;;;;;;4.13;1.88;;;;;;;20.59;nan;100787.34;5041961;28;20491;-50
2021/05/10 07:13:30;;;;;;;3.03;1.60;;;;;;;20.79;nan;100779.41;5040190;28;20063;-49
2021/05/10 07:15:56;;;;;;;4.80;1.90;;;;;;;20.92;nan;100782.31;5044134;28;20414;-50
2021/05/10 07:18:21;;;;;;;5.50;1.90;;;;;;;21.22;nan;100781.44;5043489;28;20115;-52
2021/05/10 07:20:47;;;;;;;2.22;1.60;;;;;;;20.89;nan;100783.75;5038919;28;20030;-52
2021/05/10 07:23:15;;;;;;;2.47;1.75;;;;;;;21.21;nan;100787.22;5043421;28;20075;-49
2021/05/10 07:25:46;;;;;;;3.25;2.15;;;;;;;21.46;nan;100786.44;5041397;28;20083;-50
2021/05/10 07:28:13;;;;;;;7.22;2.10;;;;;;;21.73;nan;100788.06;5041942;28;20025;-49
2021/05/10 07:30:39;;;;;;;7.40;2.30;;;;;;;21.94;nan;100778.09;5042392;28;20091;-52
2021/05/10 07:33:04;;;;;;;4.53;2.15;;;;;;;21.89;nan;100780.16;5039803;28;20104;-53
2021/05/10 07:35:31;;;;;;;4.00;2.47;;;;;;;22.21;nan;100774.19;5041826;28;20033;-49
2021/05/10 07:37:56;;;;;;;5.07;2.40;;;;;;;22.29;nan;100767.13;5039791;28;20041;-50
2021/05/10 07:40:24;;;;;;;2.85;2.13;;;;;;;22.34;nan;100766.94;5044741;28;20024;-49
2021/05/10 07:42:50;;;;;;;3.78;1.88;;;;;;;22.54;nan;100763.50;5042286;28;20020;-50
2021/05/10 07:45:17;;;;;;;2.92;1.90;;;;;;;22.66;nan;100767.47;5042022;28;20068;-49
2021/05/10 07:47:43;;;;;;;4.18;2.33;;;;;;;22.60;nan;100767.63;5039787;28;20024;-51
2021/05/10 07:50:09;;;;;;;4.57;2.47;;;;;;;22.72;nan;100763.41;5040903;28;20064;-50
2021/05/10 07:52:35;;;;;;;3.85;2.35;;;;;;;22.89;nan;100760.63;5038779;28;20035;-53
2021/05/10 07:55:01;;;;;;;3.85;2.50;;;;;;;23.07;nan;100762.09;5037041;28;20371;-52
2021/05/10 07:57:27;;;;;;;2.97;2.20;;;;;;;23.11;nan;100773.97;5044459;28;20112;-49
2021/05/10 07:59:53;;;;;;;6.18;2.30;;;;;;;23.29;nan;100769.19;5038645;28;20064;-49
2021/05/10 08:02:22;;;;;;;4.47;2.05;;;;;;;23.44;nan;100765.06;5041575;28;20544;-52
2021/05/10 08:04:51;;;;;;;2.10;1.90;;;;;;;23.08;nan;100763.72;5039491;28;20120;-53
2021/05/10 08:07:17;;;;;;;2.90;2.10;;;;;;;22.96;nan;100755.41;5042057;28;20031;-51
2021/05/10 08:09:43;;;;;;;4.65;2.17;;;;;;;23.39;nan;100755.13;5042293;28;20385;-49
2021/05/10 08:12:10;;;;;;;2.78;2.22;;;;;;;23.08;nan;100760.97;5040149;28;20052;-51
2021/05/10 08:14:35;;;;;;;3.08;2.17;;;;;;;23.29;nan;100751.97;5033255;28;20060;-51
2021/05/10 08:17:02;;;;;;;4.82;2.10;;;;;;;23.55;nan;100749.84;5040858;28;20099;-53
2021/05/10 08:19:29;;;;;;;3.75;2.10;;;;;;;23.72;nan;100749.72;5043326;28;20032;-49
2021/05/10 08:22:01;;;;;;;3.35;1.80;;;;;;;23.73;nan;100743.13;5040198;28;20025;-51
2021/05/10 08:24:27;;;;;;;6.05;2.53;;;;;;;23.98;nan;100748.66;5041337;28;20473;-50
2021/05/10 08:26:53;;;;;;;2.47;1.90;;;;;;;23.95;nan;100749.34;5041741;28;20137;-50
2021/05/10 08:29:19;;;;;;;2.78;1.92;;;;;;;24.04;nan;100756.31;5024490;28;20028;-49
2021/05/10 08:31:45;;;;;;;2.88;1.85;;;;;;;24.07;nan;100749.38;5043494;28;20021;-52
2021/05/10 08:34:12;;;;;;;4.35;2.10;;;;;;;23.29;nan;100755.53;5035266;28;20364;-51
2021/05/10 08:36:38;;;;;;;5.45;2.22;;;;;;;23.53;nan;100746.66;5036617;28;20029;-51
2021/05/10 08:39:09;;;;;;;4.20;2.05;;;;;;;23.82;nan;100745.75;5034695;28;20030;-50
2021/05/10 08:41:38;;;;;;;4.32;2.30;;;;;;;24.06;nan;100734.09;5038678;28;20029;-49
2021/05/10 08:44:05;;;;;;;5.90;2.47;;;;;;;24.21;nan;100732.63;5030811;28;20166;-52
2021/05/10 08:46:32;;;;;;;2.20;1.60;;;;;;;24.22;nan;100737.75;5037037;28;20102;-52
2021/05/10 08:48:58;;;;;;;2.55;1.67;;;;;;;24.08;nan;100735.34;5034914;28;20033;-52
2021/05/10 08:51:25;;;;;;;2.22;1.73;;;;;;;24.32;nan;100740.09;5032645;28;20051;-51
2021/05/10 08:53:50;;;;;;;2.28;1.88;;;;;;;24.55;nan;100736.91;5035580;28;20396;-53
2021/05/10 08:56:16;;;;;;;5.25;1.70;;;;;;;24.59;nan;100737.81;5035973;28;20013;-53
2021/05/10 08:58:43;;;;;;;2.25;1.90;;;;;;;24.58;nan;100730.72;5036787;28;20017;-51
2021/05/10 09:01:10;;;;;;;3.05;1.85;;;;;;;23.87;nan;100742.81;5035960;28;20028;-50
2021/05/10 09:03:42;;;;;;;3.33;2.20;;;;;;;24.21;nan;100747.09;5033777;28;20043;-51
2021/05/10 09:06:12;;;;;;;3.97;1.70;;;;;;;24.17;nan;100737.97;5033721;28;20094;-52
2021/05/10 09:08:40;;;;;;;2.75;1.63;;;;;;;24.04;nan;100728.94;5037480;28;20035;-51
2021/05/10 09:11:06;;;;;;;2.58;1.80;;;;;;;24.32;nan;100737.34;5032445;28;20028;-49
2021/05/10 09:13:37;;;;;;;3.53;2.20;;;;;;;24.76;nan;100737.56;5033421;28;20032;-52
2021/05/10 09:16:03;;;;;;;3.92;2.10;;;;;;;24.89;nan;100736.44;5023643;28;20033;-52
2021/05/10 09:18:29;;;;;;;4.47;2.25;;;;;;;25.24;nan;100727.69;5034734;28;20100;-52
2021/05/10 09:20:54;;;;;;;7.10;2.33;;;;;;;25.38;nan;100741.84;5032454;28;20105;-52
2021/05/10 09:23:20;;;;;;;2.38;1.70;;;;;;;25.35;nan;100736.25;5016433;28;20290;-51
2021/05/10 09:25:54;;;;;;;2.30;2.08;;;;;;;25.39;nan;100737.94;5030538;28;20404;-51
2021/05/10 09:28:24;;;;;;;2.53;1.93;;;;;;;25.52;nan;100728.53;5037375;28;20129;-51
2021/05/10 09:30:54;;;;;;;3.58;2.15;;;;;;;25.61;nan;100729.16;5032356;28;20036;-51
2021/05/10 09:33:24;;;;;;;5.18;1.95;;;;;;;25.77;nan;100733.94;5025940;28;20026;-51
2021/05/10 09:35:55;;;;;;;5.43;2.15;;;;;;;25.70;nan;100728.25;5031986;28;20542;-51
2021/05/10 09:38:25;;;;;;;3.13;1.83;;;;;;;25.41;nan;100732.91;5031406;28;20120;-50
2021/05/10 09:41:02;;;;;;;8.10;2.40;;;;;;;25.54;nan;100739.94;5033995;28;20047;-50
2021/05/10 09:43:32;;;;;;;4.35;1.80;;;;;;;25.86;nan;100738.13;5036290;28;20087;-49
2021/05/10 09:46:03;;;;;;;7.78;2.10;;;;;;;25.96;nan;100733.25;5029867;28;20033;-51
2021/05/10 09:48:33;;;;;;;3.20;1.95;;;;;;;25.93;nan;100733.97;5031952;28;20148;-51
2021/05/10 09:51:01;;;;;;;14.45;3.28;;;;;;;25.53;nan;100724.63;5015361;28;20376;-53
2021/05/10 09:53:39;;;;;;;2.88;1.92;;;;;;;24.16;nan;100736.38;5035563;28;20029;-51
2021/05/10 09:56:07;;;;;;;4.60;1.92;;;;;;;24.21;nan;100738.09;5031712;28;20380;-51
2021/05/10 09:58:46;;;;;;;2.50;1.60;;;;;;;23.63;nan;100748.19;5014979;28;20104;-51
2021/05/10 10:01:12;;;;;;;2.10;1.90;;;;;;;23.79;nan;100749.16;5012982;28;20148;-52
2021/05/10 10:03:41;;;;;;;1.80;1.70;;;;;;;24.22;nan;100748.69;5029972;28;20047;-52
2021/05/10 10:06:09;;;;;;;3.60;1.98;;;;;;;24.05;nan;100740.69;5033951;28;20038;-49
2021/05/10 10:08:36;;;;;;;3.03;1.83;;;;;;;24.43;nan;100745.13;5030697;28;20064;-52
2021/05/10 10:11:04;;;;;;;4.55;1.85;;;;;;;25.06;nan;100738.13;5032389;28;20029;-52
2021/05/10 10:13:30;;;;;;;4.10;2.13;;;;;;;25.62;nan;100729.97;5032188;28;20029;-50
2021/05/10 10:15:58;;;;;;;2.90;2.08;;;;;;;25.71;nan;100727.09;5033963;28;20039;-53
2021/05/10 10:18:25;;;;;;;14.27;4.00;;;;;;;25.59;nan;100720.47;5035539;28;20127;-50
2021/05/10 10:20:53;;;;;;;3.53;2.13;;;;;;;25.35;nan;100726.06;5031632;28;20036;-49
2021/05/10 10:23:22;;;;;;;3.08;1.98;;;;;;;25.76;nan;100722.16;5011828;28;20033;-50
2021/05/10 10:25:48;;;;;;;4.68;1.80;;;;;;;26.03;nan;100717.78;5019516;28;20083;-53
2021/05/10 10:28:16;;;;;;;3.00;1.90;;;;;;;25.99;nan;100725.09;5035064;28;20139;-51
2021/05/10 10:30:46;;;;;;;5.43;2.50;;;;;;;25.61;nan;100722.88;5033814;28;20087;-54
2021/05/10 10:33:26;;;;;;;11.35;3.55;;;;;;;25.81;nan;100723.84;5035563;28;20021;-52
2021/05/10 10:35:53;;;;;;;22.02;4.45;;;;;;;26.04;nan;100722.13;5035005;28;20402;-53
2021/05/10 10:38:33;;;;;;;18.33;3.53;;;;;;;25.83;nan;100727.81;5036134;28;20103;-52
2021/05/10 10:41:23;;;;;;;17.77;3.03;;;;;;;25.37;nan;100726.53;5023446;28;20397;-50
2021/05/10 10:43:49;;;;;;;27.50;4.78;;;;;;;25.74;nan;100723.66;5029001;28;20033;-52
2021/05/10 10:46:21;;;;;;;6.80;2.10;;;;;;;26.03;nan;100715.03;5033158;28;20028;-49
2021/05/10 10:48:51;;;;;;;14.98;2.58;;;;;;;26.38;nan;100717.06;5033624;28;20037;-52
2021/05/10 10:51:18;;;;;;;4.20;1.88;;;;;;;26.27;nan;100716.00;5017608;28;20029;-50
2021/05/10 10:53:55;;;;;;;3.35;1.65;;;;;;;26.57;nan;100721.84;5034142;28;20032;-52
2021/05/10 10:56:49;;;;;;;3.10;1.52;;;;;;;26.50;nan;100725.22;5035254;28;20029;-53
2021/05/10 10:59:39;;;;;;;2.45;1.67;;;;;;;26.60;nan;100724.69;5016495;28;20085;-52
2021/05/10 11:02:17;;;;;;;4.93;1.70;;;;;;;26.25;nan;100724.59;5023306;28;20037;-49
2021/05/10 11:04:43;;;;;;;2.83;1.85;;;;;;;26.36;nan;100727.63;5037791;28;20063;-52
2021/05/10 11:07:10;;;;;;;4.60;1.90;;;;;;;26.27;nan;100727.00;5036378;28;20032;-51
2021/05/10 11:09:55;;;;;;;5.97;1.73;;;;;;;26.07;nan;100729.66;5040914;28;20422;-52
2021/05/10 11:12:45;;;;;;;2.22;1.48;;;;;;;26.62;nan;100733.38;5036850;28;20269;-50
2021/05/10 11:15:12;;;;;;;16.40;3.75;;;;;;;26.90;nan;100729.69;5036927;28;20028;-50
2021/05/10 11:18:04;;;;;;;1.38;1.27;;;;;;;26.59;nan;100730.56;5036105;28;20476;-52
2021/05/10 11:20:40;;;;;;;3.42;1.38;;;;;;;26.13;nan;100730.97;5034581;28;20352;-53
2021/05/10 11:23:24;;;;;;;1.77;1.30;;;;;;;26.60;nan;100730.19;5035206;28;20032;-49
2021/05/10 11:25:53;;;;;;;9.27;2.23;;;;;;;26.91;nan;100721.06;5035188;28;20021;-52
2021/05/10 11:28:24;;;;;;;2.63;1.77;;;;;;;25.81;nan;100727.38;5034238;28;20064;-52
2021/05/10 11:31:08;;;;;;;3.55;1.90;;;;;;;26.18;nan;100714.22;5036072;28;20044;-52
2021/05/10 11:33:52;;;;;;;2.40;1.58;;;;;;;26.69;nan;100706.06;5036983;28;20387;-53
2021/05/10 11:36:25;;;;;;;4.63;1.67;;;;;;;26.67;nan;100702.88;5037821;28;20036;-51
2021/05/10 11:38:52;;;;;;;3.80;1.67;;;;;;;26.94;nan;100701.13;5035243;28;20084;-52
2021/05/10 11:41:19;;;;;;;2.42;1.60;;;;;;;26.86;nan;100710.34;5040656;28;20056;-53
2021/05/10 11:43:44;;;;;;;4.30;1.73;;;;;;;26.99;nan;100708.28;5035520;28;20026;-53
2021/05/10 11:46:10;;;;;;;2.95;1.90;;;;;;;27.35;nan;100710.66;5038509;28;20578;-49
2021/05/10 11:48:40;;;;;;;2.60;1.70;;;;;;;27.20;nan;100717.03;5034890;28;20024;-50
2021/05/10 11:51:22;;;;;;;10.65;2.65;;;;;;;26.66;nan;100726.00;5034371;28;20116;-49
2021/05/10 11:54:08;;;;;;;3.50;1.80;;;;;;;26.58;nan;100721.50;5037195;28;20029;-53